sensor_id;sensor_type;location;lat;lon;timestamp;temperature;humidity
1411;DHT22;700;51.906;8.404;2023-10-31T00:04:00;15.60;99.90
1411;DHT22;700;51.906;8.404;2023-10-31T00:09:00;15.40;99.90
1411;DHT22;700;51.906;8.404;2023-10-31T00:14:01;15.40;99.90
1411;DHT22;700;51.906;8.404;2023-10-31T00:19:02;15.60;99.90
1411;DHT22;700;51.906;8.404;2023-10-31T00:24:03;15.60;99.90
1411;DHT22;700;51.906;8.404;2023-10-31T00:29:04;15.60;99.90
1411;DHT22;700;51.906;8.404;2023-10-31T00:34:07;15.60;99.90
1411;DHT22;700;51.906;8.404;2023-10-31T00:39:08;15.70;99.90
1411;DHT22;700;51.906;8.404;2023-10-31T00:44:09;15.90;99.90
1411;DHT22;700;51.906;8.404;2023-10-31T00:49:10;15.90;99.90
1411;DHT22;700;51.906;8.404;2023-10-31T00:54:11;15.70;99.90
1411;DHT22;700;51.906;8.404;2023-10-31T00:59:12;15.60;99.90
1411;DHT22;700;51.906;8.404;2023-10-31T01:04:13;15.60;99.90
1411;DHT22;700;51.906;8.404;2023-10-31T01:09:14;15.80;99.90
1411;DHT22;700;51.906;8.404;2023-10-31T01:14:15;16.00;99.90
1411;DHT22;700;51.906;8.404;2023-10-31T01:19:16;15.90;99.90
1411;DHT22;700;51.906;8.404;2023-10-31T01:24:16;15.80;99.90
1411;DHT22;700;51.906;8.404;2023-10-31T01:29:17;15.60;99.90
1411;DHT22;700;51.906;8.404;2023-10-31T01:34:18;15.40;99.90
1411;DHT22;700;51.906;8.404;2023-10-31T01:39:22;15.20;99.90
1411;DHT22;700;51.906;8.404;2023-10-31T01:44:23;14.90;99.90
1411;DHT22;700;51.906;8.404;2023-10-31T01:49:25;14.50;99.90
1411;DHT22;700;51.906;8.404;2023-10-31T01:54:26;14.30;99.90
1411;DHT22;700;51.906;8.404;2023-10-31T01:59:28;14.30;99.90
1411;DHT22;700;51.906;8.404;2023-10-31T02:04:32;14.10;99.90
1411;DHT22;700;51.906;8.404;2023-10-31T02:09:32;13.50;99.90
1411;DHT22;700;51.906;8.404;2023-10-31T02:14:33;13.50;99.90
1411;DHT22;700;51.906;8.404;2023-10-31T02:19:36;13.70;99.90
1411;DHT22;700;51.906;8.404;2023-10-31T02:24:39;13.70;99.90
1411;DHT22;700;51.906;8.404;2023-10-31T02:29:42;13.40;99.90
1411;DHT22;700;51.906;8.404;2023-10-31T02:34:45;13.30;99.90
1411;DHT22;700;51.906;8.404;2023-10-31T02:39:48;13.60;99.90
1411;DHT22;700;51.906;8.404;2023-10-31T02:44:49;13.60;99.90
1411;DHT22;700;51.906;8.404;2023-10-31T02:49:54;13.50;99.90
1411;DHT22;700;51.906;8.404;2023-10-31T02:54:56;13.30;99.90
1411;DHT22;700;51.906;8.404;2023-10-31T02:59:59;13.30;99.90
1411;DHT22;700;51.906;8.404;2023-10-31T03:05:00;13.20;99.90
1411;DHT22;700;51.906;8.404;2023-10-31T03:10:03;13.30;99.90
1411;DHT22;700;51.906;8.404;2023-10-31T03:15:04;13.20;99.90
1411;DHT22;700;51.906;8.404;2023-10-31T03:20:05;13.20;99.90
1411;DHT22;700;51.906;8.404;2023-10-31T03:25:08;13.00;99.90
1411;DHT22;700;51.906;8.404;2023-10-31T03:30:09;13.30;99.90
1411;DHT22;700;51.906;8.404;2023-10-31T03:35:10;13.10;99.90
1411;DHT22;700;51.906;8.404;2023-10-31T03:40:11;13.10;99.90
1411;DHT22;700;51.906;8.404;2023-10-31T03:45:12;13.10;99.90
1411;DHT22;700;51.906;8.404;2023-10-31T03:50:12;13.00;99.90
1411;DHT22;700;51.906;8.404;2023-10-31T03:55:16;13.10;99.90
1411;DHT22;700;51.906;8.404;2023-10-31T04:00:17;12.80;99.90
1411;DHT22;700;51.906;8.404;2023-10-31T04:05:17;12.90;99.90
1411;DHT22;700;51.906;8.404;2023-10-31T04:10:19;12.70;99.90
1411;DHT22;700;51.906;8.404;2023-10-31T04:15:19;12.70;99.90
1411;DHT22;700;51.906;8.404;2023-10-31T04:20:20;12.80;99.90
1411;DHT22;700;51.906;8.404;2023-10-31T04:25:23;12.80;99.90
1411;DHT22;700;51.906;8.404;2023-10-31T04:30:24;12.90;99.90
1411;DHT22;700;51.906;8.404;2023-10-31T04:35:28;13.00;99.90
1411;DHT22;700;51.906;8.404;2023-10-31T04:40:28;12.90;99.90
1411;DHT22;700;51.906;8.404;2023-10-31T04:45:29;13.00;99.90
1411;DHT22;700;51.906;8.404;2023-10-31T04:50:29;13.00;99.90
1411;DHT22;700;51.906;8.404;2023-10-31T04:55:30;12.90;99.90
1411;DHT22;700;51.906;8.404;2023-10-31T05:00:33;12.90;99.90
1411;DHT22;700;51.906;8.404;2023-10-31T05:05:36;12.70;99.90
1411;DHT22;700;51.906;8.404;2023-10-31T05:10:37;13.00;99.90
1411;DHT22;700;51.906;8.404;2023-10-31T05:15:37;13.00;99.90
1411;DHT22;700;51.906;8.404;2023-10-31T05:20:40;12.80;99.90
1411;DHT22;700;51.906;8.404;2023-10-31T05:25:43;13.20;99.90
1411;DHT22;700;51.906;8.404;2023-10-31T05:30:44;13.20;99.90
1411;DHT22;700;51.906;8.404;2023-10-31T05:35:44;13.30;99.90
1411;DHT22;700;51.906;8.404;2023-10-31T05:40:48;13.20;99.90
1411;DHT22;700;51.906;8.404;2023-10-31T05:45:49;13.20;99.90
1411;DHT22;700;51.906;8.404;2023-10-31T05:50:52;13.40;99.90
1411;DHT22;700;51.906;8.404;2023-10-31T05:55:52;13.50;99.90
1411;DHT22;700;51.906;8.404;2023-10-31T06:00:53;13.30;99.90
1411;DHT22;700;51.906;8.404;2023-10-31T06:05:54;13.30;99.90
1411;DHT22;700;51.906;8.404;2023-10-31T06:10:58;13.30;99.90
1411;DHT22;700;51.906;8.404;2023-10-31T06:16:01;13.20;99.90
1411;DHT22;700;51.906;8.404;2023-10-31T06:21:04;13.40;99.90
1411;DHT22;700;51.906;8.404;2023-10-31T06:26:04;13.40;99.90
1411;DHT22;700;51.906;8.404;2023-10-31T06:31:05;13.40;99.90
1411;DHT22;700;51.906;8.404;2023-10-31T06:36:08;13.30;99.90
1411;DHT22;700;51.906;8.404;2023-10-31T06:41:09;13.40;99.90
1411;DHT22;700;51.906;8.404;2023-10-31T06:46:10;13.30;99.90
1411;DHT22;700;51.906;8.404;2023-10-31T06:51:11;12.90;99.90
1411;DHT22;700;51.906;8.404;2023-10-31T06:56:14;13.10;99.90
1411;DHT22;700;51.906;8.404;2023-10-31T07:01:15;13.20;99.90
1411;DHT22;700;51.906;8.404;2023-10-31T07:06:18;13.20;99.90
1411;DHT22;700;51.906;8.404;2023-10-31T07:11:21;13.30;99.90
1411;DHT22;700;51.906;8.404;2023-10-31T07:16:22;13.10;99.90
1411;DHT22;700;51.906;8.404;2023-10-31T07:21:26;13.30;99.90
1411;DHT22;700;51.906;8.404;2023-10-31T07:26:26;13.30;99.90
1411;DHT22;700;51.906;8.404;2023-10-31T07:31:29;13.20;99.90
1411;DHT22;700;51.906;8.404;2023-10-31T07:36:34;13.20;99.90
1411;DHT22;700;51.906;8.404;2023-10-31T07:41:37;13.30;99.90
1411;DHT22;700;51.906;8.404;2023-10-31T07:46:40;13.40;99.90
1411;DHT22;700;51.906;8.404;2023-10-31T07:51:43;13.40;99.90
1411;DHT22;700;51.906;8.404;2023-10-31T07:56:46;13.40;99.90
1411;DHT22;700;51.906;8.404;2023-10-31T08:01:46;13.70;99.90
1411;DHT22;700;51.906;8.404;2023-10-31T08:06:49;13.80;99.90
1411;DHT22;700;51.906;8.404;2023-10-31T08:11:49;14.00;99.90
1411;DHT22;700;51.906;8.404;2023-10-31T08:16:52;13.80;99.90
1411;DHT22;700;51.906;8.404;2023-10-31T08:21:53;13.80;99.90
1411;DHT22;700;51.906;8.404;2023-10-31T08:26:53;14.30;99.90
1411;DHT22;700;51.906;8.404;2023-10-31T08:31:56;14.70;99.90
1411;DHT22;700;51.906;8.404;2023-10-31T08:37:01;14.80;99.90
1411;DHT22;700;51.906;8.404;2023-10-31T08:42:03;15.00;99.90
1411;DHT22;700;51.906;8.404;2023-10-31T08:47:06;15.00;99.90
1411;DHT22;700;51.906;8.404;2023-10-31T08:52:07;14.90;99.90
1411;DHT22;700;51.906;8.404;2023-10-31T08:57:10;14.40;99.90
1411;DHT22;700;51.906;8.404;2023-10-31T09:02:10;14.30;99.90
1411;DHT22;700;51.906;8.404;2023-10-31T09:07:11;14.50;99.90
1411;DHT22;700;51.906;8.404;2023-10-31T09:12:12;14.70;99.90
1411;DHT22;700;51.906;8.404;2023-10-31T09:17:12;14.70;99.90
1411;DHT22;700;51.906;8.404;2023-10-31T09:22:13;14.70;99.90
1411;DHT22;700;51.906;8.404;2023-10-31T09:27:16;14.70;99.90
1411;DHT22;700;51.906;8.404;2023-10-31T09:32:18;14.70;99.90
1411;DHT22;700;51.906;8.404;2023-10-31T09:37:21;15.30;99.90
1411;DHT22;700;51.906;8.404;2023-10-31T09:42:22;15.10;99.90
1411;DHT22;700;51.906;8.404;2023-10-31T09:47:22;15.20;99.90
1411;DHT22;700;51.906;8.404;2023-10-31T09:52:25;15.10;99.90
1411;DHT22;700;51.906;8.404;2023-10-31T09:57:26;14.60;99.90
1411;DHT22;700;51.906;8.404;2023-10-31T10:02:27;14.40;99.90
1411;DHT22;700;51.906;8.404;2023-10-31T10:07:27;14.40;99.90
1411;DHT22;700;51.906;8.404;2023-10-31T10:12:28;14.40;99.90
1411;DHT22;700;51.906;8.404;2023-10-31T10:17:28;14.40;99.90
1411;DHT22;700;51.906;8.404;2023-10-31T10:22:29;14.10;99.90
1411;DHT22;700;51.906;8.404;2023-10-31T10:27:30;14.30;99.90
1411;DHT22;700;51.906;8.404;2023-10-31T10:32:30;14.10;99.90
1411;DHT22;700;51.906;8.404;2023-10-31T10:37:31;14.10;99.90
1411;DHT22;700;51.906;8.404;2023-10-31T10:42:48;13.90;99.90
1411;DHT22;700;51.906;8.404;2023-10-31T10:47:55;14.10;99.90
1411;DHT22;700;51.906;8.404;2023-10-31T10:53:14;14.20;99.90
1411;DHT22;700;51.906;8.404;2023-10-31T11:03:24;14.10;99.90
1411;DHT22;700;51.906;8.404;2023-10-31T11:08:30;14.30;99.90
1411;DHT22;700;51.906;8.404;2023-10-31T11:13:34;14.00;99.90
1411;DHT22;700;51.906;8.404;2023-10-31T11:18:38;13.80;99.90
1411;DHT22;700;51.906;8.404;2023-10-31T11:23:42;13.90;99.90
1411;DHT22;700;51.906;8.404;2023-10-31T11:28:42;14.10;99.90
1411;DHT22;700;51.906;8.404;2023-10-31T11:33:43;14.10;99.90
1411;DHT22;700;51.906;8.404;2023-10-31T11:38:47;14.20;99.90
1411;DHT22;700;51.906;8.404;2023-10-31T11:43:51;14.30;99.90
1411;DHT22;700;51.906;8.404;2023-10-31T11:48:55;14.40;99.90
1411;DHT22;700;51.906;8.404;2023-10-31T11:54:02;14.60;99.90
1411;DHT22;700;51.906;8.404;2023-10-31T11:59:04;14.30;99.90
1411;DHT22;700;51.906;8.404;2023-10-31T12:04:07;14.30;99.90
1411;DHT22;700;51.906;8.404;2023-10-31T12:09:07;14.40;99.90
1411;DHT22;700;51.906;8.404;2023-10-31T12:14:09;14.60;99.90
1411;DHT22;700;51.906;8.404;2023-10-31T12:19:09;14.70;99.90
1411;DHT22;700;51.906;8.404;2023-10-31T12:24:14;14.70;99.90
1411;DHT22;700;51.906;8.404;2023-10-31T12:29:19;14.80;99.90
1411;DHT22;700;51.906;8.404;2023-10-31T12:34:22;14.80;99.90
1411;DHT22;700;51.906;8.404;2023-10-31T12:39:26;14.60;99.90
1411;DHT22;700;51.906;8.404;2023-10-31T12:44:29;14.80;99.90
1411;DHT22;700;51.906;8.404;2023-10-31T12:49:32;15.00;99.90
1411;DHT22;700;51.906;8.404;2023-10-31T12:54:34;15.00;99.90
1411;DHT22;700;51.906;8.404;2023-10-31T12:59:38;14.60;99.90
1411;DHT22;700;51.906;8.404;2023-10-31T13:04:39;14.70;99.90
1411;DHT22;700;51.906;8.404;2023-10-31T13:09:39;14.80;99.90
1411;DHT22;700;51.906;8.404;2023-10-31T13:14:42;14.50;99.90
1411;DHT22;700;51.906;8.404;2023-10-31T13:19:42;14.50;99.90
1411;DHT22;700;51.906;8.404;2023-10-31T13:24:43;14.70;99.90
1411;DHT22;700;51.906;8.404;2023-10-31T13:29:46;14.50;99.90
1411;DHT22;700;51.906;8.404;2023-10-31T13:34:49;14.90;99.90
1411;DHT22;700;51.906;8.404;2023-10-31T13:39:52;14.70;99.90
1411;DHT22;700;51.906;8.404;2023-10-31T13:44:53;14.80;99.90
1411;DHT22;700;51.906;8.404;2023-10-31T13:49:54;14.80;99.90
1411;DHT22;700;51.906;8.404;2023-10-31T13:54:57;15.00;99.90
1411;DHT22;700;51.906;8.404;2023-10-31T14:00:00;14.80;99.90
1411;DHT22;700;51.906;8.404;2023-10-31T14:05:03;14.70;99.90
1411;DHT22;700;51.906;8.404;2023-10-31T14:10:07;14.30;99.90
1411;DHT22;700;51.906;8.404;2023-10-31T14:15:08;14.40;99.90
1411;DHT22;700;51.906;8.404;2023-10-31T14:20:09;14.40;99.90
1411;DHT22;700;51.906;8.404;2023-10-31T14:25:09;14.40;99.90
1411;DHT22;700;51.906;8.404;2023-10-31T14:30:11;14.30;99.90
1411;DHT22;700;51.906;8.404;2023-10-31T14:35:13;14.60;99.90
1411;DHT22;700;51.906;8.404;2023-10-31T14:40:13;14.60;99.90
1411;DHT22;700;51.906;8.404;2023-10-31T14:45:14;14.70;99.90
1411;DHT22;700;51.906;8.404;2023-10-31T14:50:15;14.90;99.90
1411;DHT22;700;51.906;8.404;2023-10-31T14:55:15;15.10;99.90
1411;DHT22;700;51.906;8.404;2023-10-31T15:00:16;15.00;99.90
1411;DHT22;700;51.906;8.404;2023-10-31T15:05:17;15.20;99.90
1411;DHT22;700;51.906;8.404;2023-10-31T15:10:23;15.50;99.90
1411;DHT22;700;51.906;8.404;2023-10-31T15:15:23;15.40;99.90
1411;DHT22;700;51.906;8.404;2023-10-31T15:20:24;15.60;99.90
1411;DHT22;700;51.906;8.404;2023-10-31T15:25:26;15.50;99.90
1411;DHT22;700;51.906;8.404;2023-10-31T15:30:27;15.40;99.90
1411;DHT22;700;51.906;8.404;2023-10-31T15:35:28;15.30;99.90
1411;DHT22;700;51.906;8.404;2023-10-31T15:40:33;14.70;99.90
1411;DHT22;700;51.906;8.404;2023-10-31T15:45:34;14.70;99.90
1411;DHT22;700;51.906;8.404;2023-10-31T15:50:40;14.60;99.90
1411;DHT22;700;51.906;8.404;2023-10-31T15:55:44;14.60;99.90
1411;DHT22;700;51.906;8.404;2023-10-31T16:00:47;14.60;99.90
1411;DHT22;700;51.906;8.404;2023-10-31T16:05:50;14.60;99.90
1411;DHT22;700;51.906;8.404;2023-10-31T16:10:51;14.50;99.90
1411;DHT22;700;51.906;8.404;2023-10-31T16:15:51;14.40;99.90
1411;DHT22;700;51.906;8.404;2023-10-31T16:20:52;14.30;99.90
1411;DHT22;700;51.906;8.404;2023-10-31T16:25:54;14.30;99.90
1411;DHT22;700;51.906;8.404;2023-10-31T16:30:57;14.30;99.90
1411;DHT22;700;51.906;8.404;2023-10-31T16:35:57;14.40;99.90
1411;DHT22;700;51.906;8.404;2023-10-31T16:41:01;14.30;99.90
1411;DHT22;700;51.906;8.404;2023-10-31T16:46:02;14.40;99.90
1411;DHT22;700;51.906;8.404;2023-10-31T16:51:03;14.30;99.90
1411;DHT22;700;51.906;8.404;2023-10-31T16:56:04;14.30;99.90
1411;DHT22;700;51.906;8.404;2023-10-31T17:01:07;13.90;99.90
1411;DHT22;700;51.906;8.404;2023-10-31T17:06:08;13.90;99.90
1411;DHT22;700;51.906;8.404;2023-10-31T17:11:09;13.70;99.90
1411;DHT22;700;51.906;8.404;2023-10-31T17:16:10;13.60;99.90
1411;DHT22;700;51.906;8.404;2023-10-31T17:21:10;13.50;99.90
1411;DHT22;700;51.906;8.404;2023-10-31T17:26:16;13.50;99.90
1411;DHT22;700;51.906;8.404;2023-10-31T17:31:19;13.60;99.90
1411;DHT22;700;51.906;8.404;2023-10-31T17:36:20;13.80;99.90
1411;DHT22;700;51.906;8.404;2023-10-31T17:41:23;13.80;99.90
1411;DHT22;700;51.906;8.404;2023-10-31T17:46:26;13.90;99.90
1411;DHT22;700;51.906;8.404;2023-10-31T17:51:29;14.00;99.90
1411;DHT22;700;51.906;8.404;2023-10-31T17:56:30;13.80;99.90
1411;DHT22;700;51.906;8.404;2023-10-31T18:01:32;13.70;99.90
1411;DHT22;700;51.906;8.404;2023-10-31T18:06:35;13.70;99.90
1411;DHT22;700;51.906;8.404;2023-10-31T18:11:36;13.70;99.90
1411;DHT22;700;51.906;8.404;2023-10-31T18:16:39;13.70;99.90
1411;DHT22;700;51.906;8.404;2023-10-31T18:21:40;13.70;99.90
1411;DHT22;700;51.906;8.404;2023-10-31T18:26:43;13.60;99.90
1411;DHT22;700;51.906;8.404;2023-10-31T18:31:44;13.60;99.90
1411;DHT22;700;51.906;8.404;2023-10-31T18:36:45;13.60;99.90
1411;DHT22;700;51.906;8.404;2023-10-31T18:41:45;13.50;99.90
1411;DHT22;700;51.906;8.404;2023-10-31T18:46:47;13.40;99.90
1411;DHT22;700;51.906;8.404;2023-10-31T18:51:52;13.60;99.90
1411;DHT22;700;51.906;8.404;2023-10-31T18:56:55;13.50;99.90
1411;DHT22;700;51.906;8.404;2023-10-31T19:02:00;13.30;99.90
1411;DHT22;700;51.906;8.404;2023-10-31T19:07:01;13.40;99.90
1411;DHT22;700;51.906;8.404;2023-10-31T19:12:02;13.80;99.90
1411;DHT22;700;51.906;8.404;2023-10-31T19:17:05;13.80;99.90
1411;DHT22;700;51.906;8.404;2023-10-31T19:22:08;14.00;99.90
1411;DHT22;700;51.906;8.404;2023-10-31T19:27:09;14.10;99.90
1411;DHT22;700;51.906;8.404;2023-10-31T19:32:12;13.70;99.90
1411;DHT22;700;51.906;8.404;2023-10-31T19:37:15;13.50;99.90
1411;DHT22;700;51.906;8.404;2023-10-31T19:42:18;13.30;99.90
1411;DHT22;700;51.906;8.404;2023-10-31T19:47:19;13.40;99.90
1411;DHT22;700;51.906;8.404;2023-10-31T19:52:22;13.50;99.90
1411;DHT22;700;51.906;8.404;2023-10-31T19:57:26;13.40;99.90
1411;DHT22;700;51.906;8.404;2023-10-31T20:02:29;13.30;99.90
1411;DHT22;700;51.906;8.404;2023-10-31T20:07:29;13.30;99.90
1411;DHT22;700;51.906;8.404;2023-10-31T20:12:30;13.30;99.90
1411;DHT22;700;51.906;8.404;2023-10-31T20:17:33;13.30;99.90
1411;DHT22;700;51.906;8.404;2023-10-31T20:22:35;13.10;99.90
1411;DHT22;700;51.906;8.404;2023-10-31T20:27:37;13.40;99.90
1411;DHT22;700;51.906;8.404;2023-10-31T20:32:38;13.60;99.90
1411;DHT22;700;51.906;8.404;2023-10-31T20:37:39;13.60;99.90
1411;DHT22;700;51.906;8.404;2023-10-31T20:42:40;13.30;99.90
1411;DHT22;700;51.906;8.404;2023-10-31T20:47:41;13.30;99.90
1411;DHT22;700;51.906;8.404;2023-10-31T20:52:41;13.40;99.90
1411;DHT22;700;51.906;8.404;2023-10-31T20:57:42;13.30;99.90
1411;DHT22;700;51.906;8.404;2023-10-31T21:02:45;13.30;99.90
1411;DHT22;700;51.906;8.404;2023-10-31T21:07:46;13.20;99.90
1411;DHT22;700;51.906;8.404;2023-10-31T21:12:47;13.20;99.90
1411;DHT22;700;51.906;8.404;2023-10-31T21:17:50;13.10;99.90
1411;DHT22;700;51.906;8.404;2023-10-31T21:22:55;13.20;99.90
1411;DHT22;700;51.906;8.404;2023-10-31T21:27:56;13.40;99.90
1411;DHT22;700;51.906;8.404;2023-10-31T21:32:56;13.30;99.90
1411;DHT22;700;51.906;8.404;2023-10-31T21:37:57;13.60;99.90
1411;DHT22;700;51.906;8.404;2023-10-31T21:43:02;13.50;99.90
1411;DHT22;700;51.906;8.404;2023-10-31T21:48:05;13.50;99.90
1411;DHT22;700;51.906;8.404;2023-10-31T21:53:13;13.40;99.90
1411;DHT22;700;51.906;8.404;2023-10-31T21:58:16;13.50;99.90
1411;DHT22;700;51.906;8.404;2023-10-31T22:03:16;13.60;99.90
1411;DHT22;700;51.906;8.404;2023-10-31T22:08:22;13.70;99.90
1411;DHT22;700;51.906;8.404;2023-10-31T22:13:25;13.60;99.90
1411;DHT22;700;51.906;8.404;2023-10-31T22:18:26;13.60;99.90
1411;DHT22;700;51.906;8.404;2023-10-31T22:23:29;13.50;99.90
1411;DHT22;700;51.906;8.404;2023-10-31T22:28:35;13.40;99.90
1411;DHT22;700;51.906;8.404;2023-10-31T22:33:36;13.20;99.90
1411;DHT22;700;51.906;8.404;2023-10-31T22:38:39;13.10;99.90
1411;DHT22;700;51.906;8.404;2023-10-31T22:43:42;12.70;99.90
1411;DHT22;700;51.906;8.404;2023-10-31T22:48:45;12.70;99.90
1411;DHT22;700;51.906;8.404;2023-10-31T22:53:45;12.90;99.90
1411;DHT22;700;51.906;8.404;2023-10-31T22:58:49;13.00;99.90
1411;DHT22;700;51.906;8.404;2023-10-31T23:03:50;13.30;99.90
1411;DHT22;700;51.906;8.404;2023-10-31T23:08:51;13.50;99.90
1411;DHT22;700;51.906;8.404;2023-10-31T23:13:54;13.60;99.90
1411;DHT22;700;51.906;8.404;2023-10-31T23:18:55;13.80;99.90
1411;DHT22;700;51.906;8.404;2023-10-31T23:23:55;14.00;99.90
1411;DHT22;700;51.906;8.404;2023-10-31T23:28:58;14.00;99.90
1411;DHT22;700;51.906;8.404;2023-10-31T23:34:02;13.90;99.90
1411;DHT22;700;51.906;8.404;2023-10-31T23:39:03;13.80;99.90
1411;DHT22;700;51.906;8.404;2023-10-31T23:44:08;13.50;99.90
1411;DHT22;700;51.906;8.404;2023-10-31T23:49:09;13.60;99.90
1411;DHT22;700;51.906;8.404;2023-10-31T23:54:10;13.70;99.90
1411;DHT22;700;51.906;8.404;2023-10-31T23:59:10;13.60;99.90
